createdAt,value
2022-11-28T00:00:35.600Z,7.50
2022-11-28T00:02:38.325Z,7.50
2022-11-28T00:04:41.269Z,7.50
2022-11-28T00:06:45.141Z,7.50
2022-11-28T00:08:47.993Z,7.50
2022-11-28T00:10:50.457Z,7.50
2022-11-28T00:12:52.988Z,7.50
2022-11-28T00:14:55.695Z,7.40
2022-11-28T00:16:58.148Z,7.50
2022-11-28T00:19:01.326Z,7.40
2022-11-28T00:21:05.385Z,7.40
2022-11-28T00:23:07.861Z,7.40
2022-11-28T00:25:10.446Z,7.40
2022-11-28T00:27:12.921Z,7.40
2022-11-28T00:29:15.495Z,7.40
2022-11-28T00:31:18.751Z,7.40
2022-11-28T00:33:21.372Z,7.40
2022-11-28T00:35:23.832Z,7.40
2022-11-28T00:37:26.339Z,7.40
2022-11-28T00:39:28.920Z,7.50
2022-11-28T00:41:33.314Z,7.60
2022-11-28T00:43:36.150Z,7.60
2022-11-28T00:45:38.766Z,7.60
2022-11-28T00:47:41.307Z,7.60
2022-11-28T00:49:43.810Z,7.60
2022-11-28T00:51:46.353Z,7.60
2022-11-28T00:53:49.688Z,7.60
2022-11-28T00:55:52.168Z,7.60
2022-11-28T00:57:54.652Z,7.60
2022-11-28T00:59:57.140Z,7.60
2022-11-28T01:01:59.844Z,7.60
2022-11-28T01:04:03.151Z,7.60
2022-11-28T01:06:06.044Z,7.50
2022-11-28T01:08:08.656Z,7.60
2022-11-28T01:10:11.869Z,7.50
2022-11-28T01:12:14.432Z,7.50
2022-11-28T01:14:18.233Z,7.40
2022-11-28T01:16:20.847Z,7.30
2022-11-28T01:18:23.434Z,7.30
2022-11-28T01:20:25.936Z,7.20
2022-11-28T01:22:28.413Z,7.20
2022-11-28T01:24:30.903Z,7.20
2022-11-28T01:26:33.516Z,7.20
2022-11-28T01:28:36.213Z,7.20
2022-11-28T01:30:38.700Z,7.10
2022-11-28T01:32:41.203Z,7.10
2022-11-28T01:34:43.923Z,7.00
2022-11-28T01:36:46.616Z,6.90
2022-11-28T01:38:49.459Z,6.90
2022-11-28T01:40:52.317Z,6.80
2022-11-28T01:42:54.830Z,6.80
2022-11-28T01:45:03.491Z,6.80
2022-11-28T01:47:06.004Z,6.80
2022-11-28T01:49:10.746Z,6.80
2022-11-28T01:51:13.532Z,6.80
2022-11-28T01:53:16.253Z,6.80
2022-11-28T01:55:20.528Z,6.80
2022-11-28T01:57:24.543Z,6.80
2022-11-28T01:59:28.114Z,6.80
2022-11-28T02:01:30.781Z,6.80
2022-11-28T02:03:35.923Z,6.90
2022-11-28T02:05:38.632Z,6.80
2022-11-28T02:07:41.143Z,6.70
2022-11-28T02:09:43.712Z,6.80
2022-11-28T02:11:51.944Z,6.80
2022-11-28T02:13:56.549Z,6.90
2022-11-28T02:16:07.814Z,6.80
2022-11-28T02:18:14.980Z,6.70
2022-11-28T02:20:45.163Z,6.70
2022-11-28T02:22:49.648Z,6.80
2022-11-28T02:24:56.728Z,6.70
2022-11-28T02:27:02.913Z,6.70
2022-11-28T02:29:25.924Z,6.70
2022-11-28T02:31:33.247Z,6.70
2022-11-28T02:33:37.724Z,6.80
2022-11-28T02:35:44.092Z,6.80
2022-11-28T02:37:49.167Z,6.80
2022-11-28T02:39:54.207Z,6.80
2022-11-28T02:41:58.626Z,6.90
2022-11-28T02:44:04.655Z,6.90
2022-11-28T02:46:09.350Z,6.80
2022-11-28T02:48:13.679Z,6.90
2022-11-28T02:50:18.522Z,7.00
2022-11-28T02:52:22.272Z,6.90
2022-11-28T02:54:25.895Z,6.90
2022-11-28T02:56:28.401Z,6.90
2022-11-28T02:58:30.913Z,6.90
2022-11-28T03:00:34.773Z,6.80
2022-11-28T03:02:37.390Z,6.80
2022-11-28T03:04:42.203Z,6.70
2022-11-28T03:06:48.998Z,6.80
2022-11-28T03:08:56.609Z,6.80
2022-11-28T03:11:01.489Z,6.80
2022-11-28T03:13:06.125Z,6.80
2022-11-28T03:15:09.480Z,6.90
2022-11-28T03:17:13.960Z,6.80
2022-11-28T03:19:18.978Z,6.80
2022-11-28T03:21:24.233Z,6.90
2022-11-28T03:23:28.629Z,6.90
2022-11-28T03:25:33.425Z,6.90
2022-11-28T03:27:37.822Z,6.80
2022-11-28T03:29:42.141Z,6.80
2022-11-28T03:31:46.912Z,6.80
2022-11-28T03:33:51.404Z,6.80
2022-11-28T03:35:55.939Z,6.80
2022-11-28T03:38:00.238Z,6.90
2022-11-28T03:40:04.057Z,6.90
2022-11-28T03:42:08.562Z,6.80
2022-11-28T03:44:12.993Z,6.80
2022-11-28T03:46:17.087Z,6.90
2022-11-28T03:48:21.302Z,6.90
2022-11-28T03:50:25.645Z,6.90
2022-11-28T03:52:29.358Z,6.90
2022-11-28T03:54:34.156Z,6.90
2022-11-28T03:56:38.622Z,6.90
2022-11-28T03:58:42.946Z,6.90
2022-11-28T04:00:47.568Z,6.90
2022-11-28T04:02:52.339Z,6.90
2022-11-28T04:04:56.980Z,7.00
2022-11-28T04:07:01.386Z,7.00
2022-11-28T04:09:08.935Z,7.00
2022-11-28T04:11:11.773Z,7.10
2022-11-28T04:13:16.124Z,7.10
2022-11-28T04:15:20.485Z,7.10
2022-11-28T04:17:25.562Z,7.10
2022-11-28T04:19:29.593Z,7.20
2022-11-28T04:21:34.058Z,7.20
2022-11-28T04:23:38.373Z,7.20
2022-11-28T04:25:42.665Z,7.20
2022-11-28T04:27:47.224Z,7.20
2022-11-28T04:29:54.253Z,7.20
2022-11-28T04:32:01.082Z,7.20
2022-11-28T04:34:08.187Z,7.20
2022-11-28T04:36:11.272Z,7.10
2022-11-28T04:38:32.672Z,7.10
2022-11-28T04:40:37.676Z,7.10
2022-11-28T04:42:42.644Z,7.10
2022-11-28T04:44:47.497Z,7.10
2022-11-28T04:46:51.857Z,7.20
2022-11-28T04:48:56.504Z,7.20
2022-11-28T04:51:12.162Z,7.20
2022-11-28T04:53:16.232Z,7.20
2022-11-28T04:55:21.999Z,7.20
2022-11-28T04:57:29.393Z,7.20
2022-11-28T04:59:33.440Z,7.10
2022-11-28T05:01:38.111Z,7.10
2022-11-28T05:03:42.742Z,7.10
2022-11-28T05:05:46.312Z,7.10
2022-11-28T05:07:49.036Z,7.00
2022-11-28T05:09:51.568Z,7.10
2022-11-28T05:11:54.044Z,7.10
2022-11-28T05:13:56.604Z,7.10
2022-11-28T05:16:00.498Z,7.10
2022-11-28T05:18:03.035Z,7.00
2022-11-28T05:20:07.019Z,7.10
2022-11-28T05:22:09.505Z,7.10
2022-11-28T05:24:12.189Z,7.10
2022-11-28T05:26:15.449Z,7.10
2022-11-28T05:28:17.944Z,7.10
2022-11-28T05:30:20.858Z,7.10
2022-11-28T05:32:23.416Z,7.10
2022-11-28T05:34:25.932Z,7.10
2022-11-28T05:36:28.407Z,7.10
2022-11-28T05:38:32.213Z,7.10
2022-11-28T05:40:34.716Z,7.10
2022-11-28T05:42:37.460Z,7.10
2022-11-28T05:44:40.038Z,7.10
2022-11-28T05:46:42.537Z,7.10
2022-11-28T05:48:45.091Z,7.10
2022-11-28T05:50:49.377Z,7.10
2022-11-28T05:52:51.853Z,7.10
2022-11-28T05:54:54.404Z,7.10
2022-11-28T05:56:56.894Z,7.10
2022-11-28T05:58:59.428Z,7.10
2022-11-28T06:01:09.220Z,7.10
2022-11-28T06:03:11.788Z,7.00
2022-11-28T06:05:40.551Z,6.90
2022-11-28T06:07:19.283Z,6.90
2022-11-28T06:09:25.676Z,6.80
2022-11-28T06:11:26.912Z,6.90
2022-11-28T06:13:29.688Z,6.80
2022-11-28T06:15:36.203Z,6.90
2022-11-28T06:17:36.789Z,6.90
2022-11-28T06:19:39.324Z,6.90
2022-11-28T06:21:41.848Z,6.90
2022-11-28T06:23:44.355Z,6.80
2022-11-28T06:25:46.848Z,6.80
2022-11-28T06:27:49.456Z,6.90
2022-11-28T06:29:51.984Z,6.80
2022-11-28T06:31:55.623Z,6.80
2022-11-28T06:33:58.640Z,6.80
2022-11-28T06:36:01.553Z,6.80
2022-11-28T06:38:04.111Z,6.70
2022-11-28T06:40:07.729Z,6.70
2022-11-28T06:42:10.322Z,6.70
2022-11-28T06:44:13.735Z,6.70
2022-11-28T06:46:18.236Z,6.70
2022-11-28T06:48:20.755Z,6.70
2022-11-28T06:50:23.247Z,6.90
2022-11-28T06:52:25.882Z,6.80
2022-11-28T06:54:28.424Z,6.80
2022-11-28T06:56:31.560Z,6.80
2022-11-28T06:58:34.232Z,6.90
2022-11-28T07:00:37.107Z,6.80
2022-11-28T07:02:39.791Z,6.90
2022-11-28T07:04:42.368Z,6.80
2022-11-28T07:06:44.950Z,6.80
2022-11-28T07:08:47.903Z,6.80
2022-11-28T07:10:50.398Z,6.90
2022-11-28T07:12:54.161Z,6.90
2022-11-28T07:14:56.669Z,6.90
2022-11-28T07:16:59.197Z,6.90
2022-11-28T07:19:01.689Z,6.90
2022-11-28T07:21:04.224Z,6.90
2022-11-28T07:23:06.740Z,6.90
2022-11-28T07:25:09.501Z,6.90
2022-11-28T07:27:11.982Z,6.80
2022-11-28T07:29:14.830Z,6.80
2022-11-28T07:31:18.163Z,6.80
2022-11-28T07:33:20.817Z,6.80
2022-11-28T07:35:23.848Z,6.90
2022-11-28T07:37:26.466Z,6.90
2022-11-28T07:39:28.988Z,6.90
2022-11-28T07:41:31.461Z,6.90
2022-11-28T07:43:34.081Z,7.00
2022-11-28T07:45:59.352Z,7.00
2022-11-28T07:47:43.557Z,7.00
2022-11-28T07:49:46.167Z,7.00
2022-11-28T07:54:08.312Z,7.10
2022-11-28T07:56:13.432Z,7.10
2022-11-28T07:58:15.909Z,7.10
2022-11-28T08:00:19.786Z,7.20
2022-11-28T08:02:22.355Z,7.30
2022-11-28T08:04:24.962Z,7.30
2022-11-28T08:06:28.442Z,7.30
2022-11-28T08:08:31.021Z,7.30
2022-11-28T08:10:33.530Z,7.40
2022-11-28T08:12:36.001Z,7.30
2022-11-28T08:14:38.784Z,7.30
2022-11-28T08:16:44.035Z,7.20
2022-11-28T08:18:47.570Z,7.30
2022-11-28T08:20:50.471Z,7.30
2022-11-28T08:22:53.188Z,7.30
2022-11-28T08:24:55.670Z,7.40
2022-11-28T08:26:58.185Z,7.40
2022-11-28T08:29:01.001Z,7.40
2022-11-28T08:31:09.725Z,7.40
2022-11-28T08:33:13.175Z,7.40
2022-11-28T08:35:15.778Z,7.40
2022-11-28T08:37:18.271Z,7.40
2022-11-28T08:39:25.096Z,7.40
2022-11-28T08:41:25.085Z,7.40
2022-11-28T08:43:27.602Z,7.40
2022-11-28T08:45:30.130Z,7.40
2022-11-28T08:47:32.868Z,7.40
2022-11-28T08:49:38.341Z,7.40
2022-11-28T08:51:40.885Z,7.50
2022-11-28T08:53:47.355Z,7.50
2022-11-28T08:55:49.172Z,7.60
2022-11-28T08:57:51.753Z,7.50
2022-11-28T08:59:54.289Z,7.60
2022-11-28T09:01:57.110Z,7.60
2022-11-28T09:04:01.605Z,7.60
2022-11-28T09:06:04.370Z,7.60
2022-11-28T09:08:10.246Z,7.70
2022-11-28T09:10:11.597Z,7.70
2022-11-28T09:12:14.197Z,7.70
2022-11-28T09:14:17.690Z,7.70
2022-11-28T09:16:20.332Z,7.70
2022-11-28T09:18:22.910Z,7.70
2022-11-28T09:20:25.393Z,7.70
2022-11-28T09:22:29.563Z,7.70
2022-11-28T09:24:32.268Z,7.70
2022-11-28T09:26:34.807Z,7.70
2022-11-28T09:28:37.335Z,7.70
2022-11-28T09:30:39.894Z,7.70
2022-11-28T09:32:42.448Z,7.70
2022-11-28T09:34:45.114Z,7.80
2022-11-28T09:36:49.404Z,7.70
2022-11-28T09:38:51.911Z,7.70
2022-11-28T09:40:54.495Z,7.70
2022-11-28T09:42:58.793Z,7.80
2022-11-28T09:47:25.521Z,7.80
2022-11-28T09:49:40.403Z,7.80
2022-11-28T09:51:39.346Z,7.80
2022-11-28T09:53:43.717Z,7.80
2022-11-28T09:55:47.772Z,7.80
2022-11-28T09:57:51.478Z,7.90
2022-11-28T09:59:53.985Z,7.90
2022-11-28T10:01:59.103Z,7.90
2022-11-28T10:04:03.619Z,8.00
2022-11-28T10:06:09.781Z,8.00
2022-11-28T10:10:35.352Z,8.00
2022-11-28T10:12:40.565Z,8.10
2022-11-28T10:15:08.457Z,8.10
2022-11-28T10:17:13.980Z,8.10
2022-11-28T10:19:46.095Z,8.10
2022-11-28T10:21:24.196Z,8.20
2022-11-28T10:23:29.201Z,8.10
2022-11-28T10:25:33.725Z,8.20
2022-11-28T10:27:36.270Z,8.20
2022-11-28T10:29:41.598Z,8.20
2022-11-28T10:31:45.632Z,8.20
2022-11-28T10:33:49.957Z,8.20
2022-11-28T10:35:53.921Z,8.30
2022-11-28T10:37:56.585Z,8.30
2022-11-28T10:40:01.071Z,8.30
2022-11-28T10:42:14.137Z,8.30
2022-11-28T10:44:21.526Z,8.30
2022-11-28T10:46:29.995Z,8.40
2022-11-28T10:48:40.044Z,8.40
2022-11-28T10:50:44.878Z,8.30
2022-11-28T10:52:49.231Z,8.30
2022-11-28T10:54:56.762Z,8.30
2022-11-28T10:57:01.849Z,8.40
2022-11-28T10:59:06.346Z,8.40
2022-11-28T11:01:09.598Z,8.40
2022-11-28T11:03:13.973Z,8.40
2022-11-28T11:05:17.777Z,8.40
2022-11-28T11:07:27.949Z,8.40
2022-11-28T11:09:26.685Z,8.50
2022-11-28T11:11:31.009Z,8.50
2022-11-28T11:13:34.858Z,8.50
2022-11-28T11:15:37.781Z,8.50
2022-11-28T11:17:40.336Z,8.50
2022-11-28T11:19:43.040Z,8.60
2022-11-28T11:21:47.515Z,8.60
2022-11-28T11:23:51.833Z,8.50
2022-11-28T11:25:55.084Z,8.60
2022-11-28T11:28:00.284Z,8.60
2022-11-28T11:30:08.841Z,8.50
2022-11-28T11:32:20.482Z,8.50
2022-11-28T11:34:23.783Z,8.50
2022-11-28T11:36:27.923Z,8.50
2022-11-28T11:38:36.311Z,8.50
2022-11-28T11:40:36.641Z,8.60
2022-11-28T11:42:40.961Z,8.60
2022-11-28T11:44:43.446Z,8.60
2022-11-28T11:46:51.230Z,8.60
2022-11-28T11:48:53.780Z,8.50
2022-11-28T11:50:56.287Z,8.60
2022-11-28T11:53:02.892Z,8.50
2022-11-28T11:55:09.377Z,8.50
2022-11-28T11:57:32.111Z,8.50
2022-11-28T11:59:18.129Z,8.50
2022-11-28T12:01:21.536Z,8.50
2022-11-28T12:03:26.601Z,8.50
2022-11-28T12:05:52.315Z,8.60
2022-11-28T12:07:39.063Z,8.50
2022-11-28T12:09:44.344Z,8.60
2022-11-28T12:11:49.269Z,8.60
2022-11-28T12:13:52.477Z,8.60
2022-11-28T12:15:58.723Z,8.60
2022-11-28T12:18:04.962Z,8.60
2022-11-28T12:20:12.269Z,8.60
2022-11-28T12:22:16.882Z,8.70
2022-11-28T12:24:21.187Z,8.70
2022-11-28T12:26:26.016Z,8.70
2022-11-28T12:28:32.545Z,8.70
2022-11-28T12:30:44.624Z,8.70
2022-11-28T12:32:47.725Z,8.70
2022-11-28T12:34:53.476Z,8.80
2022-11-28T12:36:58.329Z,8.80
2022-11-28T12:39:03.057Z,8.80
2022-11-28T12:41:16.498Z,8.90
2022-11-28T12:43:23.400Z,8.80
2022-11-28T12:45:36.009Z,8.80
2022-11-28T12:47:41.278Z,8.80
2022-11-28T12:50:05.095Z,8.70
2022-11-28T12:52:13.927Z,8.70
2022-11-28T12:54:35.688Z,8.70
2022-11-28T12:56:42.225Z,8.80
2022-11-28T12:58:46.063Z,8.70
2022-11-28T13:00:50.751Z,8.70
2022-11-28T13:02:57.353Z,8.70
2022-11-28T13:05:10.326Z,8.70
2022-11-28T13:07:15.245Z,8.70
2022-11-28T13:09:22.217Z,8.80
2022-11-28T13:11:31.897Z,8.60
2022-11-28T13:13:37.127Z,8.60
2022-11-28T13:15:43.391Z,8.60
2022-11-28T13:17:47.761Z,8.60
2022-11-28T13:19:52.070Z,8.60
2022-11-28T13:21:56.629Z,8.60
2022-11-28T13:24:08.394Z,8.60
2022-11-28T13:26:12.812Z,8.60
2022-11-28T13:28:17.857Z,8.60
2022-11-28T13:30:21.854Z,8.60
2022-11-28T13:32:26.370Z,8.60
2022-11-28T13:34:30.001Z,8.60
2022-11-28T13:38:57.407Z,8.60
2022-11-28T13:40:48.475Z,8.60
2022-11-28T13:43:04.345Z,8.70
2022-11-28T13:44:59.121Z,8.70
2022-11-28T13:47:13.589Z,8.60
2022-11-28T13:49:21.671Z,8.60
2022-11-28T13:51:30.481Z,8.60
2022-11-28T13:53:29.252Z,8.70
2022-11-28T13:55:39.325Z,8.70
2022-11-28T13:57:41.888Z,8.70
2022-11-28T13:59:47.942Z,8.70
2022-11-28T14:01:52.375Z,8.70
2022-11-28T14:03:57.742Z,8.70
2022-11-28T14:06:01.710Z,8.60
2022-11-28T14:10:36.274Z,8.60
2022-11-28T14:12:41.083Z,8.60
2022-11-28T14:14:52.162Z,8.60
2022-11-28T14:16:58.938Z,8.50
2022-11-28T14:19:06.776Z,8.50
2022-11-28T14:21:11.833Z,8.50
2022-11-28T14:23:18.846Z,8.50
2022-11-28T14:25:23.251Z,8.50
2022-11-28T14:27:28.622Z,8.50
2022-11-28T14:29:33.328Z,8.50
2022-11-28T14:31:37.360Z,8.50
2022-11-28T14:33:41.742Z,8.50
2022-11-28T14:36:04.749Z,8.50
2022-11-28T14:38:20.626Z,8.50
2022-11-28T14:40:41.083Z,8.50
2022-11-28T14:43:00.136Z,8.50
2022-11-28T14:44:50.125Z,8.50
2022-11-28T14:47:14.629Z,8.50
2022-11-28T14:49:20.862Z,8.50
2022-11-28T14:51:31.553Z,8.50
2022-11-28T14:53:38.242Z,8.50
2022-11-28T14:55:41.029Z,8.50
2022-11-28T14:57:52.839Z,8.50
2022-11-28T14:59:56.715Z,8.40
2022-11-28T15:02:01.844Z,8.50
2022-11-28T15:04:07.154Z,8.40
2022-11-28T15:06:11.120Z,8.50
2022-11-28T15:08:32.524Z,8.50
2022-11-28T15:10:39.157Z,8.50
2022-11-28T15:12:44.966Z,8.50
2022-11-28T15:14:49.975Z,8.50
2022-11-28T15:16:54.521Z,8.50
2022-11-28T15:18:58.862Z,8.50
2022-11-28T15:21:02.691Z,8.50
2022-11-28T15:23:06.066Z,8.50
2022-11-28T15:25:17.793Z,8.50
2022-11-28T15:27:23.221Z,8.50
2022-11-28T15:29:26.765Z,8.50
2022-11-28T15:31:29.450Z,8.50
2022-11-28T15:33:32.985Z,8.40
2022-11-28T15:35:35.508Z,8.50
2022-11-28T15:37:38.793Z,8.50
2022-11-28T15:39:42.793Z,8.50
2022-11-28T15:41:45.753Z,8.50
2022-11-28T15:43:49.271Z,8.60
2022-11-28T15:45:53.546Z,8.50
2022-11-28T15:47:56.573Z,8.50
2022-11-28T15:50:00.594Z,8.50
2022-11-28T15:52:04.941Z,8.50
2022-11-28T15:54:19.846Z,8.50
2022-11-28T15:56:23.292Z,8.50
2022-11-28T15:58:28.432Z,8.40
2022-11-28T16:00:31.174Z,8.50
2022-11-28T16:02:34.622Z,8.50
2022-11-28T16:04:37.789Z,8.50
2022-11-28T16:06:42.360Z,8.50
2022-11-28T16:08:48.238Z,8.50
2022-11-28T16:10:50.921Z,8.40
2022-11-28T16:12:55.244Z,8.40
2022-11-28T16:15:00.372Z,8.40
2022-11-28T16:17:04.678Z,8.40
2022-11-28T16:19:08.617Z,8.30
2022-11-28T16:21:12.293Z,8.30
2022-11-28T16:23:17.737Z,8.30
2022-11-28T16:25:22.260Z,8.30
2022-11-28T16:27:27.304Z,8.30
2022-11-28T16:29:34.655Z,8.40
2022-11-28T16:31:36.008Z,8.30
2022-11-28T16:33:39.551Z,8.30
2022-11-28T16:35:42.063Z,8.30
2022-11-28T16:37:44.668Z,8.30
2022-11-28T16:39:47.314Z,8.40
2022-11-28T16:41:51.672Z,8.40
2022-11-28T16:43:55.856Z,8.40
2022-11-28T16:45:59.466Z,8.40
2022-11-28T16:48:04.452Z,8.40
2022-11-28T16:50:17.803Z,8.30
2022-11-28T16:52:40.680Z,8.30
2022-11-28T16:54:43.448Z,8.30
2022-11-28T16:56:47.437Z,8.30
2022-11-28T16:58:51.231Z,8.20
2022-11-28T17:01:01.375Z,8.20
2022-11-28T17:03:04.405Z,8.20
2022-11-28T17:05:07.500Z,8.30
2022-11-28T17:07:10.984Z,8.30
2022-11-28T17:09:13.664Z,8.30
2022-11-28T17:11:17.932Z,8.30
2022-11-28T17:13:21.364Z,8.20
2022-11-28T17:15:23.868Z,8.30
2022-11-28T17:17:27.382Z,8.30
2022-11-28T17:19:29.899Z,8.30
2022-11-28T17:21:34.228Z,8.30
2022-11-28T17:23:36.717Z,8.30
2022-11-28T17:25:39.196Z,8.30
2022-11-28T17:27:41.724Z,8.30
2022-11-28T17:29:44.535Z,8.30
2022-11-28T17:31:47.945Z,8.30
2022-11-28T17:33:50.725Z,8.40
2022-11-28T17:35:54.246Z,8.40
2022-11-28T17:37:57.478Z,8.30
2022-11-28T17:40:18.278Z,8.30
2022-11-28T17:42:20.772Z,8.30
2022-11-28T17:44:25.692Z,6.90
2022-11-28T17:46:29.145Z,8.30
2022-11-28T17:48:31.776Z,8.40
2022-11-28T17:50:34.433Z,8.40
2022-11-28T17:52:37.065Z,8.40
2022-11-28T17:54:39.561Z,8.40
2022-11-28T17:56:42.777Z,8.40
2022-11-28T17:58:45.407Z,8.40
2022-11-28T18:00:48.209Z,8.40
2022-11-28T18:02:50.908Z,8.40
2022-11-28T18:04:54.061Z,8.40
2022-11-28T18:06:56.785Z,8.40
2022-11-28T18:09:01.627Z,8.30
2022-11-28T18:11:06.003Z,8.30
2022-11-28T18:13:09.437Z,8.30
2022-11-28T18:15:13.231Z,8.40
2022-11-28T18:17:16.019Z,8.40
2022-11-28T18:19:21.021Z,8.40
2022-11-28T18:21:24.447Z,8.40
2022-11-28T18:23:27.064Z,8.40
2022-11-28T18:25:29.828Z,8.40
2022-11-28T18:27:32.762Z,8.40
2022-11-28T18:29:34.912Z,8.40
2022-11-28T18:31:38.275Z,8.30
2022-11-28T18:33:41.312Z,8.40
2022-11-28T18:35:44.010Z,8.30
2022-11-28T18:37:47.111Z,8.40
2022-11-28T18:39:50.821Z,8.40
2022-11-28T18:41:54.017Z,8.40
2022-11-28T18:43:57.081Z,8.40
2022-11-28T18:46:02.961Z,8.40
2022-11-28T18:48:05.877Z,8.30
2022-11-28T18:50:12.654Z,8.40
2022-11-28T18:52:15.657Z,8.40
2022-11-28T18:54:21.449Z,8.50
2022-11-28T18:56:23.609Z,8.40
2022-11-28T18:58:26.274Z,8.40
2022-11-28T19:00:28.930Z,8.40
2022-11-28T19:02:32.484Z,8.30
2022-11-28T19:04:35.435Z,8.30
2022-11-28T19:06:38.964Z,8.30
2022-11-28T19:08:41.484Z,8.40
2022-11-28T19:10:44.182Z,8.40
2022-11-28T19:12:46.805Z,8.40
2022-11-28T19:14:50.752Z,8.40
2022-11-28T19:16:53.469Z,8.50
2022-11-28T19:18:56.408Z,8.50
2022-11-28T19:20:59.012Z,8.40
2022-11-28T19:23:01.699Z,8.50
2022-11-28T19:25:04.962Z,8.50
2022-11-28T19:27:13.832Z,8.50
2022-11-28T19:29:12.131Z,8.50
2022-11-28T19:31:15.763Z,8.50
2022-11-28T19:33:18.966Z,8.50
2022-11-28T19:35:21.834Z,8.50
2022-11-28T19:37:25.307Z,8.50
2022-11-28T19:39:30.882Z,8.50
2022-11-28T19:41:41.142Z,8.40
2022-11-28T19:43:47.579Z,8.50
2022-11-28T19:45:54.297Z,8.50
2022-11-28T19:47:56.980Z,8.50
2022-11-28T19:49:59.835Z,8.40
2022-11-28T19:52:02.617Z,8.40
2022-11-28T19:54:06.212Z,8.40
2022-11-28T19:56:10.899Z,8.40
2022-11-28T19:58:13.594Z,8.30
2022-11-28T20:00:18.446Z,8.30
2022-11-28T20:02:22.913Z,8.20
2022-11-28T20:04:25.986Z,8.30
2022-11-28T20:06:29.658Z,8.20
2022-11-28T20:08:32.861Z,7.50
2022-11-28T20:10:36.038Z,8.30
2022-11-28T20:12:38.789Z,8.40
2022-11-28T20:14:41.689Z,8.40
2022-11-28T20:16:45.300Z,8.40
2022-11-28T20:18:49.898Z,8.40
2022-11-28T20:20:52.721Z,8.30
2022-11-28T20:22:56.947Z,8.30
2022-11-28T20:24:59.666Z,8.30
2022-11-28T20:27:02.320Z,8.30
2022-11-28T20:29:05.589Z,8.40
2022-11-28T20:31:10.750Z,8.40
2022-11-28T20:33:13.389Z,8.40
2022-11-28T20:35:17.321Z,8.40
2022-11-28T20:37:20.073Z,8.40
2022-11-28T20:39:22.718Z,8.40
2022-11-28T20:41:26.557Z,8.30
2022-11-28T20:43:33.279Z,8.30
2022-11-28T20:45:35.805Z,8.30
2022-11-28T20:47:38.425Z,8.30
2022-11-28T20:49:41.042Z,8.30
2022-11-28T20:51:44.590Z,8.30
2022-11-28T20:53:48.731Z,8.30
2022-11-28T20:55:54.752Z,8.30
2022-11-28T20:57:57.496Z,7.30
2022-11-28T21:00:02.520Z,8.60
2022-11-28T21:02:05.301Z,8.80
2022-11-28T21:04:08.710Z,8.30
2022-11-28T21:06:11.354Z,8.40
2022-11-28T21:08:13.841Z,8.40
2022-11-28T21:10:16.544Z,8.40
2022-11-28T21:12:21.117Z,8.40
2022-11-28T21:14:23.555Z,8.40
2022-11-28T21:16:27.255Z,8.80
2022-11-28T21:18:29.833Z,8.40
2022-11-28T21:20:32.483Z,8.40
2022-11-28T21:22:36.014Z,8.40
2022-11-28T21:24:38.654Z,8.40
2022-11-28T21:26:45.359Z,8.40
2022-11-28T21:28:46.975Z,8.40
2022-11-28T21:30:49.544Z,8.30
2022-11-28T21:32:52.149Z,8.30
2022-11-28T21:34:57.342Z,8.30
2022-11-28T21:36:59.723Z,8.20
2022-11-28T21:39:02.272Z,8.30
2022-11-28T21:41:05.147Z,8.20
2022-11-28T21:43:08.017Z,8.20
2022-11-28T21:45:11.121Z,8.20
2022-11-28T21:47:13.656Z,8.20
2022-11-28T21:49:19.857Z,8.20
2022-11-28T21:51:23.544Z,8.30
2022-11-28T21:53:27.223Z,8.30
2022-11-28T21:55:29.835Z,8.30
2022-11-28T21:57:33.808Z,8.30
2022-11-28T21:59:36.313Z,8.30
2022-11-28T22:01:38.976Z,8.40
2022-11-28T22:03:43.045Z,8.30
2022-11-28T22:05:45.670Z,8.40
2022-11-28T22:07:48.331Z,8.40
2022-11-28T22:09:50.964Z,8.40
2022-11-28T22:11:54.464Z,8.40
2022-11-28T22:13:57.036Z,8.40
2022-11-28T22:15:59.565Z,8.50
2022-11-28T22:18:02.140Z,8.50
2022-11-28T22:20:07.333Z,8.40
2022-11-28T22:22:11.294Z,8.50
2022-11-28T22:24:15.778Z,8.50
2022-11-28T22:26:20.449Z,8.50
2022-11-28T22:28:24.092Z,8.50
2022-11-28T22:30:27.852Z,8.60
2022-11-28T22:32:31.554Z,8.60
2022-11-28T22:34:39.653Z,8.50
2022-11-28T22:36:39.464Z,8.50
2022-11-28T22:38:45.195Z,8.60
2022-11-28T22:40:47.996Z,8.50
2022-11-28T22:42:54.151Z,8.50
2022-11-28T22:44:57.993Z,8.50
2022-11-28T22:47:00.603Z,8.20
2022-11-28T22:49:04.389Z,8.50
2022-11-28T22:51:07.845Z,8.40
2022-11-28T22:53:10.505Z,8.40
2022-11-28T22:55:13.226Z,8.40
2022-11-28T22:57:15.879Z,8.50
2022-11-28T22:59:18.508Z,8.50
2022-11-28T23:01:23.438Z,8.50
2022-11-28T23:03:26.791Z,8.50
2022-11-28T23:05:29.466Z,8.50
2022-11-28T23:07:33.047Z,8.50
2022-11-28T23:09:35.884Z,8.50
2022-11-28T23:11:39.029Z,8.50
2022-11-28T23:13:42.336Z,8.50
2022-11-28T23:15:48.498Z,8.60
2022-11-28T23:17:49.684Z,8.60
2022-11-28T23:19:52.741Z,8.60
2022-11-28T23:21:55.737Z,8.60
2022-11-28T23:23:58.746Z,8.70
2022-11-28T23:26:06.754Z,8.60
2022-11-28T23:28:09.719Z,8.70
2022-11-28T23:30:13.046Z,8.70
2022-11-28T23:32:16.033Z,8.70
2022-11-28T23:34:20.201Z,8.70
2022-11-28T23:36:25.032Z,8.50
2022-11-28T23:38:31.104Z,8.70
2022-11-28T23:40:37.632Z,8.70
2022-11-28T23:42:43.953Z,8.70
2022-11-28T23:44:47.114Z,8.70
2022-11-28T23:46:49.700Z,8.70
2022-11-28T23:48:52.386Z,8.70
2022-11-28T23:50:54.984Z,8.70
2022-11-28T23:52:57.498Z,8.70
2022-11-28T23:55:00.020Z,8.70
2022-11-28T23:57:02.729Z,8.70
2022-11-28T23:59:05.982Z,8.70
